Time;durP1;ratioP1;P1;durP2;ratioP2;P2;SDS_P1;SDS_P2;PMS_P1;PMS_P2;Temp;Humidity;BMP_temperature;BMP_pressure;BME280_temperature;BME280_humidity;BME280_pressure;Samples;Min_cycle;Max_cycle;Signal;HPM_P1;HPM_P2
2022/12/28 00:01:32;;;;;;;9.00;2.88;;;;;;;5.75;100.00;101600.06;4979800;28;20054;-65
2022/12/28 00:04:00;;;;;;;6.85;3.10;;;;;;;5.72;100.00;101585.47;4984754;28;20491;-65
2022/12/28 00:06:27;;;;;;;6.72;2.75;;;;;;;5.72;100.00;101580.28;4988624;28;20058;-65
2022/12/28 00:08:55;;;;;;;7.80;3.13;;;;;;;5.73;100.00;101578.50;4972996;28;20415;-66
2022/12/28 00:11:24;;;;;;;9.40;3.50;;;;;;;5.78;100.00;101563.41;4978612;28;20046;-66
2022/12/28 00:13:58;;;;;;;8.50;3.00;;;;;;;5.78;100.00;101553.00;4972170;28;20124;-66
2022/12/28 00:16:30;;;;;;;8.80;3.10;;;;;;;5.79;100.00;101544.25;4973417;28;20087;-66
2022/12/28 00:18:59;;;;;;;12.90;3.72;;;;;;;5.76;100.00;101531.44;4976889;28;20050;-66
2022/12/28 00:21:26;;;;;;;;;;;;;;;5.75;100.00;101527.16;4985214;28;20054;-66
2022/12/28 00:23:56;;;;;;;10.25;3.15;;;;;;;5.77;100.00;101524.47;4990887;28;19929;-67
2022/12/28 00:26:25;;;;;;;6.30;2.38;;;;;;;5.77;100.00;101511.47;4983786;28;20341;-66
2022/12/28 00:28:51;;;;;;;9.70;2.73;;;;;;;5.77;100.00;101512.28;4979476;28;20448;-65
2022/12/28 00:31:25;;;;;;;7.05;2.90;;;;;;;5.74;100.00;101507.25;4993453;28;20049;-65
2022/12/28 00:33:52;;;;;;;8.18;3.10;;;;;;;5.77;100.00;101504.47;4988228;28;20647;-65
2022/12/28 00:36:18;;;;;;;9.57;3.30;;;;;;;5.77;100.00;101503.66;4979163;28;20050;-65
2022/12/28 00:38:45;;;;;;;6.40;2.33;;;;;;;5.77;100.00;101498.44;4986531;28;20061;-66
2022/12/28 00:41:11;;;;;;;7.70;2.72;;;;;;;5.77;100.00;101488.84;4976920;28;20051;-65
2022/12/28 00:43:38;;;;;;;6.40;2.53;;;;;;;5.75;100.00;101488.13;4963670;28;20062;-66
2022/12/28 00:46:04;;;;;;;6.00;2.72;;;;;;;5.80;100.00;101470.44;4987785;28;20061;-62
2022/12/28 00:48:31;;;;;;;11.55;3.00;;;;;;;5.79;100.00;101462.72;4962017;28;20141;-65
2022/12/28 00:51:05;;;;;;;7.43;3.08;;;;;;;5.87;100.00;101463.06;4986588;28;20054;-65
2022/12/28 00:53:32;;;;;;;7.35;2.42;;;;;;;5.80;100.00;101466.97;4987715;28;20423;-65
2022/12/28 00:56:14;;;;;;;6.85;2.45;;;;;;;5.87;100.00;101455.25;4975142;28;20458;-66
2022/12/28 00:58:41;;;;;;;7.22;2.80;;;;;;;5.85;100.00;101465.75;4985062;28;20120;-66
2022/12/28 01:01:20;;;;;;;6.60;2.70;;;;;;;5.91;100.00;101451.50;4972592;28;20061;-65
2022/12/28 01:03:47;;;;;;;7.68;2.72;;;;;;;5.88;100.00;101454.28;4987943;28;20137;-65
2022/12/28 01:06:17;;;;;;;10.77;2.85;;;;;;;5.90;100.00;101448.06;4985371;28;20137;-68
2022/12/28 01:08:43;;;;;;;6.50;2.50;;;;;;;5.89;100.00;101453.38;4986151;28;20712;-66
2022/12/28 01:11:17;;;;;;;6.43;2.55;;;;;;;5.96;100.00;101453.81;4972401;28;20065;-65
2022/12/28 01:13:44;;;;;;;7.35;3.20;;;;;;;5.92;100.00;101445.38;4968267;28;20435;-65
2022/12/28 01:16:16;;;;;;;5.85;2.70;;;;;;;5.99;100.00;101428.41;4978318;28;20133;-65
2022/12/28 01:18:44;;;;;;;5.95;2.83;;;;;;;6.01;100.00;101425.72;4975142;28;20092;-64
2022/12/28 01:21:16;;;;;;;6.45;2.88;;;;;;;6.06;100.00;101426.25;4986367;28;20042;-65
2022/12/28 01:23:44;;;;;;;5.45;2.63;;;;;;;6.10;100.00;101419.91;4981566;28;20065;-65
2022/12/28 01:26:11;;;;;;;7.53;3.22;;;;;;;6.10;100.00;101409.50;4984482;28;20046;-66
2022/12/28 01:28:38;;;;;;;8.65;3.45;;;;;;;6.16;100.00;101395.22;4980244;28;20061;-66
2022/12/28 01:31:15;;;;;;;9.68;2.92;;;;;;;6.19;100.00;101393.22;4989801;28;20347;-66
2022/12/28 01:33:43;;;;;;;6.68;3.30;;;;;;;6.22;100.00;101392.19;4987388;28;20460;-65
2022/12/28 01:36:14;;;;;;;7.50;3.10;;;;;;;6.25;100.00;101394.56;4977587;28;20070;-65
2022/12/28 01:38:42;;;;;;;9.13;3.50;;;;;;;6.26;100.00;101386.66;4979085;28;20570;-68
2022/12/28 01:41:10;;;;;;;7.20;3.22;;;;;;;6.31;100.00;101381.13;4976189;28;20054;-65
2022/12/28 01:43:44;;;;;;;8.00;3.53;;;;;;;6.32;100.00;101378.44;4988465;28;20069;-66
2022/12/28 01:46:15;;;;;;;6.05;3.17;;;;;;;6.32;100.00;101378.44;4986011;28;20462;-67
2022/12/28 01:48:48;;;;;;;8.07;3.53;;;;;;;6.38;100.00;101368.53;4976858;28;20046;-66
2022/12/28 01:51:16;;;;;;;5.93;3.20;;;;;;;6.38;100.00;101358.09;4988743;28;20053;-66
2022/12/28 01:53:43;;;;;;;6.30;3.33;;;;;;;6.38;100.00;101377.19;4957965;28;20054;-67
2022/12/28 01:56:10;;;;;;;5.25;3.00;;;;;;;6.43;100.00;101353.41;4994979;28;20052;-67
2022/12/28 01:58:36;;;;;;;6.38;3.45;;;;;;;6.42;100.00;101375.19;4958439;28;20050;-65
2022/12/28 02:01:03;;;;;;;6.82;3.38;;;;;;;6.44;100.00;101360.28;4994289;28;20588;-66
2022/12/28 02:03:31;;;;;;;7.30;3.17;;;;;;;6.47;100.00;101349.66;4984835;28;20589;-66
2022/12/28 02:06:01;;;;;;;10.18;3.42;;;;;;;6.48;100.00;101346.09;4981614;28;20125;-65
2022/12/28 02:08:46;;;;;;;7.00;2.97;;;;;;;6.46;100.00;101343.59;4990317;28;20518;-66
2022/12/28 02:11:17;;;;;;;7.47;3.33;;;;;;;6.56;100.00;101338.56;4977380;28;20764;-65
2022/12/28 02:13:46;;;;;;;8.95;3.55;;;;;;;6.58;100.00;101341.09;4987953;28;20491;-67
2022/12/28 02:16:13;;;;;;;7.97;3.15;;;;;;;6.57;100.00;101324.63;4966234;28;20057;-66
2022/12/28 02:18:42;;;;;;;4.68;2.83;;;;;;;6.61;100.00;101317.41;4985360;28;20054;-65
2022/12/28 02:21:24;;;;;;;7.47;3.35;;;;;;;6.62;100.00;101298.22;4979790;28;20513;-66
2022/12/28 02:24:19;;;;;;;6.10;3.15;;;;;;;6.60;100.00;101306.13;4992231;28;20046;-66
2022/12/28 02:26:53;;;;;;;8.52;2.97;;;;;;;6.58;100.00;101294.16;4980501;28;20080;-65
2022/12/28 02:29:36;;;;;;;7.05;3.33;;;;;;;6.61;100.00;101284.34;4989918;28;20077;-65
2022/12/28 02:32:16;;;;;;;6.07;3.08;;;;;;;6.61;100.00;101278.31;4993285;28;20483;-66
2022/12/28 02:34:51;;;;;;;8.30;3.45;;;;;;;6.66;100.00;101268.38;4982161;28;20100;-65
2022/12/28 02:37:23;;;;;;;8.75;3.20;;;;;;;6.65;100.00;101262.34;4983732;28;20102;-66
2022/12/28 02:39:55;;;;;;;7.18;3.67;;;;;;;6.62;100.00;101252.13;4979280;28;20050;-65
2022/12/28 02:42:24;;;;;;;8.73;3.83;;;;;;;6.67;100.00;101251.81;4989170;28;20136;-66
2022/12/28 02:50:35;;;;;;;5.40;2.67;;;;;;;6.69;100.00;101257.75;4988389;28;20085;-66
2022/12/28 02:53:20;;;;;;;4.72;3.10;;;;;;;6.65;100.00;101249.31;4987461;28;20109;-66
2022/12/28 02:56:13;;;;;;;6.32;2.95;;;;;;;6.62;100.00;101252.13;4977264;28;20510;-65
2022/12/28 02:58:54;;;;;;;6.47;3.33;;;;;;;6.59;100.00;101247.13;4996786;28;20057;-66
2022/12/28 03:01:29;;;;;;;11.93;3.33;;;;;;;6.55;100.00;101253.50;4981664;28;20050;-67
2022/12/28 03:04:10;;;;;;;10.00;3.80;;;;;;;6.53;100.00;101245.81;4957154;28;20053;-66
2022/12/28 03:10:07;;;;;;;11.35;3.70;;;;;;;6.47;100.00;101240.19;4982494;28;20583;-66
2022/12/28 03:12:55;;;;;;;5.85;3.22;;;;;;;6.44;100.00;101243.00;4979209;28;20589;-66
2022/12/28 03:15:29;;;;;;;6.70;3.20;;;;;;;6.39;100.00;101240.75;4986416;28;20120;-66
2022/12/28 03:32:28;;;;;;;8.85;4.13;;;;;;;6.34;100.00;101212.38;4976563;28;20495;-66
2022/12/28 03:34:55;;;;;;;7.57;3.65;;;;;;;6.34;100.00;101206.34;4986209;28;20073;-66
2022/12/28 03:37:42;;;;;;;8.65;4.20;;;;;;;6.39;100.00;101204.25;4977587;28;20054;-65
2022/12/28 03:40:18;;;;;;;7.53;4.10;;;;;;;6.39;100.00;101203.41;4988108;28;20058;-66
2022/12/28 03:45:43;;;;;;;8.00;3.50;;;;;;;6.48;100.00;101198.38;4980716;28;20082;-67
2022/12/28 03:48:14;;;;;;;4.50;3.13;;;;;;;6.50;100.00;101198.28;4975346;28;20057;-66
2022/12/28 03:50:44;;;;;;;9.10;3.88;;;;;;;6.52;100.00;101219.84;4999457;28;20046;-69
2022/12/28 03:53:11;;;;;;;9.63;4.40;;;;;;;6.51;100.00;101185.13;4984030;28;20082;-69
2022/12/28 03:55:43;;;;;;;8.10;4.35;;;;;;;6.54;100.00;101178.84;4985256;28;20054;-69
2022/12/28 03:58:12;;;;;;;7.35;3.92;;;;;;;6.59;100.00;101192.41;4981739;28;20047;-67
2022/12/28 04:00:39;;;;;;;10.02;4.47;;;;;;;6.57;100.00;101189.06;4973462;28;20054;-66
2022/12/28 04:03:05;;;;;;;9.77;4.70;;;;;;;6.61;100.00;101181.88;4989586;28;20062;-66
2022/12/28 04:05:32;;;;;;;7.50;4.88;;;;;;;6.63;100.00;101175.59;4979452;28;20047;-65
2022/12/28 04:07:58;;;;;;;6.18;4.07;;;;;;;6.64;100.00;101169.41;4990870;28;20565;-66
2022/12/28 04:10:24;;;;;;;9.70;4.80;;;;;;;6.65;100.00;101171.09;4985795;28;20081;-66
2022/12/28 04:12:55;;;;;;;6.85;4.32;;;;;;;6.69;100.00;101166.50;4975813;28;20767;-65
2022/12/28 04:15:22;;;;;;;8.32;4.75;;;;;;;6.67;100.00;101176.19;4982668;28;20050;-66
2022/12/28 04:17:48;;;;;;;8.35;4.82;;;;;;;6.70;100.00;101152.50;4980271;28;20087;-65
2022/12/28 04:20:15;;;;;;;10.38;4.57;;;;;;;6.67;100.00;101152.75;4988236;28;21115;-66
2022/12/28 04:22:41;;;;;;;8.23;4.97;;;;;;;6.67;100.00;101152.75;4989888;28;20047;-65
2022/12/28 04:25:07;;;;;;;12.43;4.80;;;;;;;6.72;100.00;101146.25;4988701;28;21176;-68
2022/12/28 04:27:34;;;;;;;7.05;4.70;;;;;;;6.69;100.00;101161.28;4981293;28;20382;-66
2022/12/28 04:30:00;;;;;;;9.60;5.18;;;;;;;6.72;100.00;101148.84;4988282;28;20061;-66
2022/12/28 04:32:27;;;;;;;6.18;3.97;;;;;;;6.79;100.00;101148.41;4996855;28;20475;-65
2022/12/28 04:34:54;;;;;;;6.97;4.40;;;;;;;6.79;100.00;101149.22;4981584;28;20057;-66
2022/12/28 04:37:20;;;;;;;8.38;4.60;;;;;;;6.83;100.00;101152.44;4992679;28;20062;-66
2022/12/28 04:39:46;;;;;;;6.80;4.50;;;;;;;6.82;100.00;101153.38;4981127;28;20281;-69
2022/12/28 04:42:25;;;;;;;8.23;4.65;;;;;;;6.86;100.00;101144.38;4981207;28;20054;-66
2022/12/28 04:44:52;;;;;;;7.75;5.40;;;;;;;6.83;100.00;101150.66;4983295;28;20522;-66
2022/12/28 04:47:18;;;;;;;8.20;4.55;;;;;;;6.87;100.00;101141.66;4979494;28;20525;-66
2022/12/28 04:49:45;;;;;;;6.78;4.50;;;;;;;6.85;100.00;101148.75;4986076;28;20089;-67
2022/12/28 04:52:11;;;;;;;7.95;4.70;;;;;;;6.87;100.00;101135.63;4980319;28;20054;-67
2022/12/28 04:54:38;;;;;;;9.00;3.95;;;;;;;6.82;100.00;101135.97;4986478;28;20346;-69
2022/12/28 04:57:05;;;;;;;11.23;5.47;;;;;;;6.83;100.00;101124.56;4982146;28;20471;-66
2022/12/28 04:59:31;;;;;;;9.50;4.43;;;;;;;6.86;100.00;101137.41;4997421;28;20054;-67
2022/12/28 05:01:58;;;;;;;8.55;5.63;;;;;;;6.88;100.00;101113.78;4985640;28;20141;-67
2022/12/28 05:04:24;;;;;;;7.82;4.30;;;;;;;6.90;100.00;101117.97;4982502;28;20100;-66
2022/12/28 05:06:51;;;;;;;13.88;7.05;;;;;;;6.89;100.00;101134.53;4985731;28;20061;-67
2022/12/28 05:09:18;;;;;;;8.48;5.22;;;;;;;6.93;100.00;101122.09;4976364;28;20474;-67
2022/12/28 05:11:45;;;;;;;11.23;5.63;;;;;;;6.97;100.00;101117.50;4981399;28;20426;-68
2022/12/28 05:14:12;;;;;;;12.52;7.20;;;;;;;6.93;100.00;101137.75;4982576;28;20050;-67
2022/12/28 05:16:38;;;;;;;8.93;5.07;;;;;;;6.99;100.00;101103.38;4955059;28;20050;-68
2022/12/28 05:19:05;;;;;;;5.88;4.20;;;;;;;6.99;100.00;101111.22;4987830;28;20145;-67
2022/12/28 05:21:31;;;;;;;8.95;5.85;;;;;;;6.98;100.00;101116.53;4991560;28;20053;-67
2022/12/28 05:23:58;;;;;;;8.55;5.53;;;;;;;7.02;100.00;101116.22;4994889;28;20459;-68
2022/12/28 05:26:27;;;;;;;12.07;6.25;;;;;;;7.07;100.00;101115.84;4983961;28;20495;-66
2022/12/28 05:28:57;;;;;;;8.40;5.25;;;;;;;7.07;100.00;101108.84;4991813;28;20590;-68
2022/12/28 05:31:24;;;;;;;8.40;5.45;;;;;;;7.09;100.00;101106.13;4992921;28;20109;-67
2022/12/28 05:33:53;;;;;;;7.90;5.43;;;;;;;7.12;100.00;101103.31;4968875;28;20137;-66
2022/12/28 05:36:22;;;;;;;9.45;4.78;;;;;;;7.19;100.00;101104.47;4999681;28;20057;-66
2022/12/28 05:38:49;;;;;;;10.70;5.22;;;;;;;7.18;100.00;101102.81;4976016;28;20050;-67
2022/12/28 05:41:21;;;;;;;7.72;4.50;;;;;;;7.19;100.00;101121.91;4994278;28;20042;-66
2022/12/28 05:43:48;;;;;;;9.52;5.55;;;;;;;7.21;100.00;101107.78;4987053;28;20322;-68
2022/12/28 05:46:18;;;;;;;10.50;5.40;;;;;;;7.24;100.00;101104.97;4983895;28;20077;-67
2022/12/28 05:48:46;;;;;;;11.13;5.30;;;;;;;7.26;100.00;101102.25;4959580;28;20077;-66
2022/12/28 05:51:16;;;;;;;7.82;5.10;;;;;;;7.31;100.00;101094.88;4986953;28;20249;-66
2022/12/28 05:53:43;;;;;;;9.60;5.65;;;;;;;7.31;100.00;101094.88;5001320;28;20061;-67
2022/12/28 05:56:14;;;;;;;10.55;4.85;;;;;;;7.29;100.00;101099.38;4986988;28;20065;-66
2022/12/28 05:58:42;;;;;;;7.57;4.05;;;;;;;7.30;100.00;101104.50;4994851;28;20049;-66
2022/12/28 06:01:18;;;;;;;8.77;4.55;;;;;;;7.31;100.00;101103.56;4990243;28;20099;-66
2022/12/28 06:03:46;;;;;;;7.90;4.47;;;;;;;7.34;100.00;101094.66;4996356;28;20115;-68
2022/12/28 06:06:15;;;;;;;6.32;4.35;;;;;;;7.37;100.00;101104.00;4995660;28;20053;-66
2022/12/28 06:08:43;;;;;;;11.38;4.55;;;;;;;7.39;100.00;101110.78;4980223;28;20080;-66
2022/12/28 06:11:13;;;;;;;9.60;4.18;;;;;;;7.41;100.00;101101.06;4993564;28;20050;-66
2022/12/28 06:13:40;;;;;;;8.20;4.50;;;;;;;7.43;100.00;101095.69;4983193;28;20053;-66
2022/12/28 06:16:09;;;;;;;6.72;4.18;;;;;;;7.44;100.00;101092.97;4998103;28;20144;-69
2022/12/28 06:18:36;;;;;;;6.75;4.53;;;;;;;7.44;100.00;101077.31;4984429;28;20054;-68
2022/12/28 06:21:10;;;;;;;9.23;4.20;;;;;;;7.49;100.00;101069.16;4989453;28;20072;-67
2022/12/28 06:23:36;;;;;;;9.23;4.90;;;;;;;7.45;100.00;101070.34;4988716;28;20058;-67
2022/12/28 06:26:05;;;;;;;5.82;3.83;;;;;;;7.49;100.00;101064.75;4991229;28;20070;-66
2022/12/28 06:28:32;;;;;;;8.65;4.28;;;;;;;7.46;100.00;101059.75;4985332;28;20050;-66
2022/12/28 06:31:05;;;;;;;5.45;4.05;;;;;;;7.51;100.00;101068.06;4987649;28;20057;-67
2022/12/28 06:33:32;;;;;;;5.72;4.07;;;;;;;7.50;100.00;101061.16;4994213;28;20046;-68
2022/12/28 06:35:59;;;;;;;6.82;4.13;;;;;;;7.52;100.00;101072.31;4974609;28;20061;-67
2022/12/28 06:38:31;;;;;;;6.78;3.97;;;;;;;7.56;100.00;101079.94;4981914;28;20535;-66
2022/12/28 06:41:03;;;;;;;6.90;3.65;;;;;;;7.56;100.00;101083.34;4985481;28;20066;-69
2022/12/28 06:43:45;;;;;;;6.90;3.95;;;;;;;7.63;100.00;101073.28;4970463;28;20058;-67
2022/12/28 06:46:13;;;;;;;6.13;4.20;;;;;;;7.66;100.00;101088.69;4983556;28;20133;-66
2022/12/28 06:48:40;;;;;;;5.13;3.30;;;;;;;7.69;100.00;101073.63;4974950;28;20051;-67
2022/12/28 06:51:12;;;;;;;6.15;3.47;;;;;;;7.71;100.00;101087.38;4980281;28;20494;-66
2022/12/28 06:53:38;;;;;;;7.00;3.38;;;;;;;7.70;100.00;101079.66;4988292;28;20054;-66
2022/12/28 06:56:17;;;;;;;7.53;3.67;;;;;;;7.74;100.00;101070.63;4987629;28;20050;-65
2022/12/28 06:58:44;;;;;;;4.55;3.33;;;;;;;7.79;100.00;101078.94;4994123;28;20042;-63
2022/12/28 07:01:15;;;;;;;5.03;2.92;;;;;;;7.80;100.00;101062.34;4988513;28;20046;-67
2022/12/28 07:03:44;;;;;;;6.60;3.40;;;;;;;7.84;100.00;101073.34;4986386;28;20108;-66
2022/12/28 07:06:12;;;;;;;4.55;2.92;;;;;;;7.86;100.00;101059.22;4980286;28;20778;-66
2022/12/28 07:08:39;;;;;;;6.93;3.33;;;;;;;7.87;100.00;101078.34;4990105;28;20682;-66
2022/12/28 07:11:11;;;;;;;4.60;3.10;;;;;;;7.89;100.00;101068.59;4980786;28;20046;-67
2022/12/28 07:13:38;;;;;;;4.40;2.67;;;;;;;7.88;100.00;101059.94;4986776;28;20050;-66
2022/12/28 07:16:13;;;;;;;6.03;2.92;;;;;;;7.97;100.00;101054.91;4985937;28;20050;-68
2022/12/28 07:18:40;;;;;;;7.03;3.38;;;;;;;7.90;100.00;101062.44;4983200;28;20057;-67
2022/12/28 07:21:10;;;;;;;6.75;3.60;;;;;;;7.92;100.00;101053.50;4989209;28;20050;-68
2022/12/28 07:23:37;;;;;;;4.25;2.42;;;;;;;7.88;100.00;101065.16;4986063;28;20062;-65
2022/12/28 07:26:12;;;;;;;5.65;3.95;;;;;;;7.93;100.00;101059.56;4986011;28;20455;-66
2022/12/28 07:28:41;;;;;;;7.10;3.60;;;;;;;7.92;100.00;101061.34;4984036;28;20136;-66
2022/12/28 07:31:08;;;;;;;;;;;;;;;7.86;100.00;101077.50;4983970;28;20054;-68
2022/12/28 07:33:36;;;;;;;4.75;3.10;;;;;;;7.84;100.00;101055.91;4963107;28;19926;-68
2022/12/28 07:36:04;;;;;;;5.32;3.17;;;;;;;7.87;100.00;101058.25;4987043;28;20082;-66
2022/12/28 07:38:32;;;;;;;6.07;3.08;;;;;;;7.89;100.00;101068.59;4989828;28;20054;-66
2022/12/28 07:41:05;;;;;;;3.10;2.40;;;;;;;7.94;100.00;101061.22;4981628;28;20068;-66
2022/12/28 07:43:31;;;;;;;3.80;3.15;;;;;;;7.93;100.00;101064.78;4990355;28;20079;-66
2022/12/28 07:46:00;;;;;;;5.95;3.10;;;;;;;7.99;100.00;101064.28;4983869;28;20500;-66
2022/12/28 07:48:29;;;;;;;3.67;3.03;;;;;;;8.03;100.00;101067.47;4980845;28;20058;-65
2022/12/28 07:50:55;;;;;;;5.78;3.25;;;;;;;8.03;100.00;101075.31;4975592;28;20054;-66
2022/12/28 07:53:22;;;;;;;6.60;3.50;;;;;;;8.05;100.00;101070.78;4984515;28;20161;-65
2022/12/28 07:55:58;;;;;;;4.10;2.97;;;;;;;8.14;100.00;101056.19;4990339;28;20112;-66
2022/12/28 07:58:25;;;;;;;5.93;2.88;;;;;;;8.10;100.00;101064.25;4979033;28;20050;-66
2022/12/28 08:00:52;;;;;;;4.88;3.33;;;;;;;8.11;100.00;101059.84;4981939;28;20064;-65
2022/12/28 08:03:19;;;;;;;5.00;2.85;;;;;;;8.12;100.00;101064.13;4986001;28;20069;-66
2022/12/28 08:05:45;;;;;;;5.25;3.22;;;;;;;8.15;100.00;101061.25;4986328;28;20641;-66
2022/12/28 08:08:12;;;;;;;8.57;3.22;;;;;;;8.16;100.00;101067.31;4987287;28;20703;-66
2022/12/28 08:10:38;;;;;;;6.22;3.28;;;;;;;8.17;100.00;101063.75;4984081;28;20061;-65
2022/12/28 08:13:05;;;;;;;5.55;3.15;;;;;;;8.18;100.00;101057.59;4965650;28;20049;-67
2022/12/28 08:15:31;;;;;;;4.57;3.33;;;;;;;8.15;100.00;101063.03;4974840;28;20653;-67
2022/12/28 08:17:58;;;;;;;8.65;4.18;;;;;;;8.17;100.00;101068.97;4985872;28;20054;-67
2022/12/28 08:20:25;;;;;;;5.45;3.90;;;;;;;8.15;100.00;101057.81;4977511;28;20054;-67
2022/12/28 08:22:52;;;;;;;7.35;4.20;;;;;;;8.17;100.00;101063.75;4988868;28;20050;-65
2022/12/28 08:25:19;;;;;;;4.78;3.42;;;;;;;8.15;100.00;101060.44;4980795;28;20127;-65
2022/12/28 08:27:45;;;;;;;6.88;4.10;;;;;;;8.17;100.00;101056.72;4977722;28;20058;-67
2022/12/28 08:30:12;;;;;;;8.48;3.83;;;;;;;8.21;100.00;101054.69;4986294;28;20056;-66
2022/12/28 08:32:38;;;;;;;7.25;3.58;;;;;;;8.22;100.00;101056.38;4985987;28;20460;-66
2022/12/28 08:35:05;;;;;;;7.40;3.60;;;;;;;8.26;100.00;101048.16;4988637;28;20168;-67
2022/12/28 08:37:31;;;;;;;6.35;3.97;;;;;;;8.25;100.00;101056.97;4981806;28;20104;-66
2022/12/28 08:39:58;;;;;;;6.90;3.38;;;;;;;8.31;100.00;101060.81;4985983;28;20630;-66
2022/12/28 08:42:24;;;;;;;7.00;3.38;;;;;;;8.32;100.00;101071.16;4982912;28;20053;-66
2022/12/28 08:44:51;;;;;;;7.57;3.47;;;;;;;8.33;100.00;101058.94;4977057;28;20053;-65
2022/12/28 08:47:17;;;;;;;7.88;3.33;;;;;;;8.35;100.00;101058.78;4993160;28;20058;-65
2022/12/28 08:49:43;;;;;;;5.47;3.40;;;;;;;8.35;100.00;101054.41;4984664;28;20050;-66
2022/12/28 08:52:10;;;;;;;4.85;3.17;;;;;;;8.39;100.00;101068.03;4989709;28;20046;-65
2022/12/28 08:54:36;;;;;;;6.85;3.00;;;;;;;8.36;100.00;101061.28;4985315;28;20057;-66
2022/12/28 08:57:03;;;;;;;5.22;2.63;;;;;;;8.37;100.00;101070.81;4983253;28;20042;-64
2022/12/28 08:59:29;;;;;;;4.50;3.17;;;;;;;8.37;100.00;101069.94;4967844;28;20049;-66
2022/12/28 09:01:55;;;;;;;8.07;3.53;;;;;;;8.40;100.00;101067.09;4986027;28;20086;-66
2022/12/28 09:04:22;;;;;;;4.55;2.75;;;;;;;8.40;100.00;101060.06;4988160;28;20491;-65
2022/12/28 09:06:49;;;;;;;6.72;3.20;;;;;;;8.41;100.00;101066.13;4965198;28;20053;-66
2022/12/28 09:09:18;;;;;;;5.88;3.20;;;;;;;8.44;100.00;101087.66;4992446;28;20081;-66
2022/12/28 09:11:45;;;;;;;6.72;3.03;;;;;;;8.42;100.00;101063.44;4981522;28;20057;-65
2022/12/28 09:14:13;;;;;;;5.13;2.90;;;;;;;8.44;100.00;101068.53;4974453;28;20050;-65
2022/12/28 09:16:49;;;;;;;6.60;3.00;;;;;;;8.36;100.00;101074.34;4981618;28;20145;-65
2022/12/28 09:19:15;;;;;;;5.30;2.72;;;;;;;8.35;100.00;101074.47;4974565;28;20046;-65
2022/12/28 09:21:44;;;;;;;6.30;3.20;;;;;;;8.35;100.00;101077.94;4990554;28;20392;-66
2022/12/28 09:24:12;;;;;;;6.05;3.28;;;;;;;8.35;100.00;101090.16;4974738;28;20416;-65
2022/12/28 09:26:38;;;;;;;6.38;3.80;;;;;;;8.25;100.00;101067.41;4981405;28;20054;-65
2022/12/28 09:29:07;;;;;;;5.82;3.85;;;;;;;8.30;100.00;101069.63;4988131;28;20514;-65
2022/12/28 09:31:35;;;;;;;6.72;3.75;;;;;;;8.26;100.00;101065.63;4979904;28;20120;-67
2022/12/28 09:34:05;;;;;;;;;;;;;;;8.26;100.00;101065.63;4987489;28;20050;-65
2022/12/28 09:36:52;;;;;;;6.70;4.00;;;;;;;8.26;100.00;101063.00;4987878;28;19921;-65
2022/12/28 09:39:21;;;;;;;8.30;3.40;;;;;;;8.27;100.00;101065.50;4981322;28;20062;-67
2022/12/28 09:41:56;;;;;;;8.27;3.75;;;;;;;8.30;100.00;101061.78;4979977;28;20066;-65
2022/12/28 09:44:37;;;;;;;8.38;3.65;;;;;;;8.33;100.00;101048.50;4991865;28;20137;-65
2022/12/28 09:47:07;;;;;;;8.32;3.58;;;;;;;8.37;100.00;101056.88;4984570;28;20053;-66
2022/12/28 09:49:42;;;;;;;8.95;4.03;;;;;;;8.42;100.00;101054.75;4994350;28;20495;-66
2022/12/28 09:52:34;;;;;;;6.03;3.50;;;;;;;8.44;100.00;101055.47;4992016;28;20050;-67
2022/12/28 09:55:11;;;;;;;8.30;3.60;;;;;;;8.45;100.00;101051.91;4952692;28;20053;-65
2022/12/28 09:57:42;;;;;;;6.28;3.17;;;;;;;8.44;100.00;101048.44;4968858;28;20050;-65
2022/12/28 10:00:16;;;;;;;9.35;3.38;;;;;;;8.44;100.00;101056.28;4982486;28;20057;-65
2022/12/28 10:02:48;;;;;;;6.88;3.55;;;;;;;8.44;100.00;101045.81;4971287;28;20050;-65
2022/12/28 10:05:15;;;;;;;6.53;2.92;;;;;;;8.36;100.00;101057.84;4981337;28;20054;-66
2022/12/28 10:07:42;;;;;;;6.30;3.13;;;;;;;8.35;100.00;101048.34;4985973;28;20097;-66
2022/12/28 10:10:15;;;;;;;8.85;3.70;;;;;;;8.38;100.00;101053.34;4961894;28;20525;-65
2022/12/28 10:12:42;;;;;;;4.80;2.72;;;;;;;8.35;100.00;101040.50;4978360;28;20054;-65
2022/12/28 10:15:12;;;;;;;5.65;3.10;;;;;;;8.36;100.00;101037.75;4986211;28;20430;-65
2022/12/28 10:17:40;;;;;;;7.82;2.88;;;;;;;8.39;100.00;101039.28;4980441;28;20524;-65
2022/12/28 10:20:14;;;;;;;4.15;2.95;;;;;;;8.39;100.00;101042.75;4991154;28;20049;-67
2022/12/28 10:22:41;;;;;;;5.47;3.30;;;;;;;8.35;100.00;101038.75;4982555;28;20051;-66
2022/12/28 10:25:21;;;;;;;5.88;3.20;;;;;;;8.34;100.00;101031.00;4988866;28;20499;-66
2022/12/28 10:27:48;;;;;;;5.28;3.30;;;;;;;8.30;100.00;101027.81;4978538;28;20050;-65
2022/12/28 10:30:25;;;;;;;7.10;3.28;;;;;;;8.31;100.00;101025.09;4995747;28;20046;-66
2022/12/28 10:32:59;;;;;;;6.10;2.95;;;;;;;8.36;100.00;101029.94;4967370;28;20400;-66
2022/12/28 10:35:36;;;;;;;5.47;3.13;;;;;;;8.45;100.00;101031.81;4985905;28;20149;-65
2022/12/28 10:38:06;;;;;;;5.95;2.67;;;;;;;8.46;100.00;101024.78;4962791;28;20076;-66
2022/12/28 10:40:37;;;;;;;7.88;3.00;;;;;;;8.48;100.00;101015.03;4984111;28;20141;-67
2022/12/28 10:43:03;;;;;;;5.15;3.00;;;;;;;8.47;100.00;101013.41;4995164;28;20054;-66
2022/12/28 10:45:40;;;;;;;4.57;2.70;;;;;;;8.55;100.00;101018.81;4993049;28;20054;-66
2022/12/28 10:48:13;;;;;;;6.20;2.85;;;;;;;8.49;100.00;101004.47;4989142;28;20125;-67
2022/12/28 10:51:10;;;;;;;4.80;2.95;;;;;;;8.58;100.00;101009.88;4988290;28;20049;-67
2022/12/28 10:53:41;;;;;;;3.03;2.33;;;;;;;8.59;100.00;101001.91;4984921;28;20054;-67
2022/12/28 10:56:10;;;;;;;4.38;2.30;;;;;;;8.60;100.00;101003.53;4985031;28;20050;-68
2022/12/28 10:58:40;;;;;;;5.95;2.45;;;;;;;8.57;100.00;101001.19;4983145;28;20138;-65
2022/12/28 11:01:12;;;;;;;5.25;2.05;;;;;;;8.59;100.00;101004.50;4988550;28;20106;-65
2022/12/28 11:03:43;;;;;;;5.05;1.75;;;;;;;8.61;100.00;101001.78;4981388;28;20050;-66
2022/12/28 11:06:18;;;;;;;4.50;2.00;;;;;;;8.60;100.00;100994.88;4993255;28;20279;-66
2022/12/28 11:09:12;;;;;;;2.85;1.73;;;;;;;8.62;100.00;100992.97;4981871;28;20145;-66
2022/12/28 11:11:39;;;;;;;3.70;1.90;;;;;;;8.58;100.00;100992.38;4984383;28;20054;-65
2022/12/28 11:14:28;;;;;;;2.92;1.75;;;;;;;8.61;100.00;100984.28;4975958;28;20046;-68
2022/12/28 11:16:54;;;;;;;4.40;1.65;;;;;;;8.60;100.00;100985.25;4983951;28;20055;-66
2022/12/28 11:19:22;;;;;;;4.30;1.70;;;;;;;8.61;100.00;100983.47;4988019;28;20153;-68
2022/12/28 11:21:50;;;;;;;2.95;1.80;;;;;;;8.56;100.00;100983.84;4993393;28;20431;-66
2022/12/28 11:24:18;;;;;;;2.22;1.45;;;;;;;8.57;100.00;100976.84;4987985;28;20592;-67
2022/12/28 11:26:48;;;;;;;3.60;1.75;;;;;;;8.61;100.00;100971.22;4981927;28;20058;-67
2022/12/28 11:29:16;;;;;;;2.85;1.50;;;;;;;8.56;100.00;100964.72;4984589;28;21321;-67
2022/12/28 11:31:54;;;;;;;3.05;1.42;;;;;;;8.55;100.00;100963.91;4982317;28;20081;-66
2022/12/28 11:34:26;;;;;;;0.97;0.90;;;;;;;8.58;100.00;100961.00;4987932;28;20047;-66
2022/12/28 11:36:53;;;;;;;4.43;1.60;;;;;;;8.53;100.00;100968.44;4981684;28;20290;-68
2022/12/28 11:39:25;;;;;;;2.92;1.60;;;;;;;8.59;100.00;100957.44;4988210;28;20050;-66
2022/12/28 11:41:53;;;;;;;2.33;1.65;;;;;;;8.58;100.00;100952.34;4987629;28;20054;-68
2022/12/28 11:44:40;;;;;;;;;;;;;;;8.66;100.00;100945.53;4976061;28;20431;-67
2022/12/28 11:47:15;;;;;;;1.77;1.33;;;;;;;8.71;100.00;100945.13;4990597;28;20224;-66
2022/12/28 11:49:46;;;;;;;3.65;1.33;;;;;;;8.71;100.00;100945.94;4981728;28;20056;-67
2022/12/28 11:52:16;;;;;;;2.47;1.40;;;;;;;8.76;100.00;100950.78;4970319;28;20058;-66
2022/12/28 11:55:20;;;;;;;2.08;1.50;;;;;;;8.75;100.00;100928.19;4980993;28;20077;-66
2022/12/28 11:57:47;;;;;;;2.60;1.70;;;;;;;8.70;100.00;100954.75;4991527;28;20058;-67
2022/12/28 12:00:19;;;;;;;4.15;1.75;;;;;;;8.76;100.00;100942.09;4975805;28;20053;-70
2022/12/28 12:02:52;;;;;;;2.03;1.60;;;;;;;8.73;100.00;100935.34;4982452;28;20051;-67
2022/12/28 12:05:34;;;;;;;3.40;1.90;;;;;;;8.82;100.00;100931.09;4986680;28;20160;-67
2022/12/28 12:08:01;;;;;;;3.67;1.67;;;;;;;8.77;100.00;100926.28;4987073;28;20054;-66